createdAt,value
2023-01-03T00:01:27.294Z,17.20
2023-01-03T00:03:56.385Z,19.02
2023-01-03T00:06:26.778Z,18.75
2023-01-03T00:08:55.697Z,16.83
2023-01-03T00:11:45.322Z,12.85
2023-01-03T00:14:16.711Z,15.95
2023-01-03T00:16:43.983Z,20.42
2023-01-03T00:19:13.899Z,18.58
2023-01-03T00:21:42.751Z,17.67
2023-01-03T00:24:11.325Z,12.80
2023-01-03T00:26:40.625Z,16.45
2023-01-03T00:29:08.640Z,17.35
2023-01-03T00:31:36.903Z,15.60
2023-01-03T00:34:04.597Z,15.18
2023-01-03T00:36:31.923Z,16.55
2023-01-03T00:38:59.191Z,15.50
2023-01-03T00:41:26.323Z,16.17
2023-01-03T00:43:53.567Z,16.42
2023-01-03T00:46:21.465Z,16.38
2023-01-03T00:48:48.866Z,14.02
2023-01-03T00:51:21.442Z,13.73
2023-01-03T00:53:51.332Z,14.65
2023-01-03T00:56:21.736Z,14.75
2023-01-03T00:58:49.070Z,16.42
2023-01-03T01:01:28.078Z,16.73
2023-01-03T01:04:04.028Z,16.20
2023-01-03T01:06:34.689Z,15.38
2023-01-03T01:09:04.164Z,18.58
2023-01-03T01:11:31.964Z,13.07
2023-01-03T01:13:59.055Z,16.60
2023-01-03T01:16:30.095Z,10.35
2023-01-03T01:18:59.665Z,18.80
2023-01-03T01:21:30.444Z,21.65
2023-01-03T01:24:00.132Z,17.48
2023-01-03T01:26:28.000Z,15.77
2023-01-03T01:28:56.738Z,17.25
2023-01-03T01:31:25.900Z,17.10
2023-01-03T01:33:54.402Z,13.60
2023-01-03T01:36:27.853Z,19.00
2023-01-03T01:39:01.021Z,14.23
2023-01-03T01:41:49.680Z,13.52
2023-01-03T01:44:54.137Z,16.55
2023-01-03T01:47:21.642Z,11.50
2023-01-03T01:49:53.635Z,16.33
2023-01-03T01:52:22.105Z,21.25
2023-01-03T01:54:52.048Z,12.45
2023-01-03T01:57:22.816Z,17.60
2023-01-03T01:59:50.052Z,13.82
2023-01-03T02:02:20.737Z,16.70
2023-01-03T02:04:52.994Z,13.75
2023-01-03T02:09:52.813Z,9.75
2023-01-03T02:12:59.406Z,11.90
2023-01-03T02:15:39.237Z,13.63
2023-01-03T02:18:18.172Z,17.55
2023-01-03T02:21:00.465Z,13.07
2023-01-03T02:24:07.194Z,11.70
2023-01-03T02:26:50.831Z,12.60
2023-01-03T02:29:35.879Z,12.75
2023-01-03T02:32:35.031Z,14.38
2023-01-03T02:35:04.954Z,17.75
2023-01-03T02:37:31.801Z,12.90
2023-01-03T02:40:07.998Z,16.83
2023-01-03T02:43:11.447Z,17.50
2023-01-03T02:48:37.450Z,16.42
2023-01-03T02:51:13.453Z,10.70
2023-01-03T02:53:46.513Z,13.45
2023-01-03T02:56:19.291Z,11.88
2023-01-03T03:01:17.833Z,8.98
2023-01-03T03:03:45.568Z,14.75
2023-01-03T03:06:22.977Z,15.32
2023-01-03T03:08:50.041Z,11.20
2023-01-03T03:11:35.371Z,15.35
2023-01-03T03:14:14.226Z,13.00
2023-01-03T03:16:48.576Z,12.80
2023-01-03T03:19:47.581Z,12.40
2023-01-03T03:22:37.183Z,14.38
2023-01-03T03:25:11.881Z,12.77
2023-01-03T03:28:02.348Z,14.13
2023-01-03T03:30:32.092Z,13.15
2023-01-03T03:33:09.720Z,13.07
2023-01-03T03:35:48.406Z,9.68
2023-01-03T03:38:22.548Z,14.43
2023-01-03T03:41:35.995Z,13.70
2023-01-03T03:47:05.223Z,13.10
2023-01-03T03:49:40.028Z,13.27
2023-01-03T03:52:12.420Z,16.23
2023-01-03T03:54:41.893Z,12.48
2023-01-03T03:57:19.438Z,13.02
2023-01-03T03:59:52.097Z,11.75
2023-01-03T04:04:51.916Z,13.13
2023-01-03T04:07:20.132Z,12.10
2023-01-03T04:09:47.285Z,14.45
2023-01-03T04:12:14.162Z,14.68
2023-01-03T04:14:41.157Z,16.30
2023-01-03T04:17:08.317Z,14.45
2023-01-03T04:19:35.148Z,12.25
2023-01-03T04:22:02.234Z,16.17
2023-01-03T04:24:29.234Z,15.52
2023-01-03T04:26:56.229Z,15.68
2023-01-03T04:29:23.781Z,19.42
2023-01-03T04:31:50.871Z,20.85
2023-01-03T04:34:17.939Z,16.95
2023-01-03T04:36:45.599Z,19.30
2023-01-03T04:39:12.736Z,15.30
2023-01-03T04:41:40.002Z,12.30
2023-01-03T04:44:07.166Z,17.88
2023-01-03T04:46:36.835Z,14.00
2023-01-03T04:49:05.361Z,12.00
2023-01-03T04:51:32.823Z,12.75
2023-01-03T04:54:00.541Z,14.65
2023-01-03T04:56:34.648Z,11.95
2023-01-03T04:59:02.285Z,10.60
2023-01-03T05:01:29.569Z,12.65
2023-01-03T05:04:01.315Z,11.18
2023-01-03T05:06:29.233Z,11.65
2023-01-03T05:08:56.351Z,12.68
2023-01-03T05:11:23.729Z,16.38
2023-01-03T05:13:52.229Z,16.10
2023-01-03T05:16:19.612Z,10.95
2023-01-03T05:18:48.314Z,13.70
2023-01-03T05:21:36.609Z,10.02
2023-01-03T05:24:23.256Z,15.02
2023-01-03T05:26:51.645Z,13.00
2023-01-03T05:29:21.910Z,20.50
2023-01-03T05:31:50.897Z,14.68
2023-01-03T05:34:20.930Z,15.73
2023-01-03T05:36:48.746Z,14.57
2023-01-03T05:39:16.029Z,15.75
2023-01-03T05:42:02.175Z,14.95
2023-01-03T05:44:33.737Z,12.88
2023-01-03T05:47:03.149Z,13.63
2023-01-03T05:49:30.930Z,12.48
2023-01-03T05:51:58.183Z,12.68
2023-01-03T05:54:25.579Z,11.25
2023-01-03T05:56:53.157Z,12.63
2023-01-03T05:59:23.436Z,10.32
2023-01-03T06:01:51.644Z,11.63
2023-01-03T06:04:20.636Z,15.50
2023-01-03T06:06:48.214Z,11.80
2023-01-03T06:09:16.734Z,11.23
2023-01-03T06:11:44.502Z,12.40
2023-01-03T06:14:12.176Z,7.18
2023-01-03T06:16:58.611Z,14.05
2023-01-03T06:19:25.983Z,12.10
2023-01-03T06:21:53.675Z,10.55
2023-01-03T06:24:22.875Z,13.18
2023-01-03T06:26:51.469Z,14.05
2023-01-03T06:29:19.974Z,12.73
2023-01-03T06:31:48.393Z,15.07
2023-01-03T06:34:16.564Z,13.32
2023-01-03T06:36:44.529Z,13.00
2023-01-03T06:39:14.997Z,14.77
2023-01-03T06:41:42.769Z,14.27
2023-01-03T06:44:15.028Z,14.70
2023-01-03T06:47:05.209Z,15.55
2023-01-03T06:49:52.342Z,15.60
2023-01-03T06:52:40.027Z,12.23
2023-01-03T06:55:10.567Z,12.68
2023-01-03T06:57:40.054Z,15.23
2023-01-03T07:00:08.580Z,14.77
2023-01-03T07:02:36.231Z,13.45
2023-01-03T07:05:06.257Z,12.35
2023-01-03T07:07:33.955Z,18.60
2023-01-03T07:10:01.356Z,15.00
2023-01-03T07:12:47.014Z,16.27
2023-01-03T07:15:14.452Z,17.08
2023-01-03T07:17:41.704Z,16.75
2023-01-03T07:20:09.120Z,14.88
2023-01-03T07:22:36.278Z,13.20
2023-01-03T07:25:03.605Z,15.30
2023-01-03T07:27:30.679Z,11.02
2023-01-03T07:29:57.653Z,10.98
2023-01-03T07:32:25.267Z,12.02
2023-01-03T07:34:52.579Z,14.93
2023-01-03T07:37:20.277Z,18.48
2023-01-03T07:39:47.292Z,13.60
2023-01-03T07:42:33.235Z,17.67
2023-01-03T07:45:01.074Z,14.40
2023-01-03T07:47:29.003Z,17.10
2023-01-03T07:49:56.274Z,12.00
2023-01-03T07:52:24.051Z,14.10
2023-01-03T07:54:51.182Z,13.55
2023-01-03T07:57:19.243Z,12.82
2023-01-03T07:59:47.030Z,11.65
2023-01-03T08:02:15.142Z,12.90
2023-01-03T08:04:42.587Z,12.57
2023-01-03T08:07:10.568Z,12.07
2023-01-03T08:09:56.843Z,15.70
2023-01-03T08:12:42.497Z,15.68
2023-01-03T08:15:10.048Z,16.83
2023-01-03T08:17:37.144Z,13.80
2023-01-03T08:20:04.834Z,15.98
2023-01-03T08:22:33.306Z,16.30
2023-01-03T08:25:00.437Z,13.90
2023-01-03T08:27:28.375Z,15.30
2023-01-03T08:29:55.515Z,14.07
2023-01-03T08:32:23.011Z,13.32
2023-01-03T08:34:51.140Z,13.63
2023-01-03T08:37:18.791Z,11.48
2023-01-03T08:39:55.722Z,12.35
2023-01-03T08:42:25.408Z,11.90
2023-01-03T08:44:59.790Z,10.95
2023-01-03T08:47:29.000Z,12.93
2023-01-03T08:49:59.217Z,10.82
2023-01-03T08:52:30.222Z,12.32
2023-01-03T08:55:00.432Z,11.05
2023-01-03T08:57:27.487Z,10.18
2023-01-03T08:59:54.601Z,10.98
2023-01-03T09:02:21.906Z,8.35
2023-01-03T09:04:49.793Z,10.45
2023-01-03T09:07:17.202Z,11.88
2023-01-03T09:09:44.328Z,9.80
2023-01-03T09:12:11.990Z,9.57
2023-01-03T09:14:39.337Z,8.45
2023-01-03T09:17:06.808Z,11.95
2023-01-03T09:19:34.209Z,11.05
2023-01-03T09:22:01.543Z,9.32
2023-01-03T09:24:28.795Z,8.93
2023-01-03T09:26:56.591Z,8.88
2023-01-03T09:29:23.804Z,9.60
2023-01-03T09:31:51.528Z,8.60
2023-01-03T09:34:19.611Z,9.35
2023-01-03T09:36:46.978Z,8.73
2023-01-03T09:39:15.022Z,8.25
2023-01-03T09:41:43.893Z,8.35
2023-01-03T09:44:11.447Z,9.93
2023-01-03T09:46:38.628Z,10.50
2023-01-03T09:49:07.657Z,7.50
2023-01-03T09:51:58.225Z,10.70
2023-01-03T09:54:51.355Z,7.43
2023-01-03T09:57:42.596Z,9.60
2023-01-03T10:00:56.212Z,6.80
2023-01-03T10:03:52.352Z,8.00
2023-01-03T10:06:54.349Z,8.35
2023-01-03T10:10:03.038Z,10.23
2023-01-03T10:12:38.868Z,8.13
2023-01-03T10:15:05.831Z,10.20
2023-01-03T10:17:41.971Z,8.50
2023-01-03T10:20:29.526Z,7.32
2023-01-03T10:23:01.101Z,7.97
2023-01-03T10:25:29.176Z,8.68
2023-01-03T10:28:04.603Z,9.30
2023-01-03T10:30:54.262Z,7.20
2023-01-03T10:33:33.642Z,7.90
2023-01-03T10:36:01.651Z,8.93
2023-01-03T10:38:29.557Z,8.20
2023-01-03T10:40:59.550Z,7.43
2023-01-03T10:43:39.413Z,9.20
2023-01-03T10:46:16.605Z,8.13
2023-01-03T10:51:43.120Z,8.82
2023-01-03T10:54:23.190Z,7.82
2023-01-03T10:56:51.630Z,9.18
2023-01-03T10:59:26.247Z,8.70
2023-01-03T11:01:59.083Z,7.82
2023-01-03T11:04:27.114Z,6.95
2023-01-03T11:07:02.352Z,9.30
2023-01-03T11:09:35.506Z,8.00
2023-01-03T11:12:14.021Z,8.52
2023-01-03T11:14:52.950Z,6.65
2023-01-03T11:17:21.577Z,7.82
2023-01-03T11:19:50.331Z,8.23
2023-01-03T11:22:38.217Z,8.32
2023-01-03T11:25:18.807Z,6.40
2023-01-03T11:28:20.055Z,8.70
2023-01-03T11:30:53.010Z,7.15
2023-01-03T11:34:00.985Z,8.40
2023-01-03T11:36:50.097Z,7.35
2023-01-03T11:39:39.733Z,7.38
2023-01-03T11:42:53.707Z,8.73
2023-01-03T11:45:30.904Z,7.25
2023-01-03T11:48:23.283Z,9.07
2023-01-03T11:50:59.379Z,8.23
2023-01-03T11:53:38.615Z,8.00
2023-01-03T11:56:11.818Z,7.70
2023-01-03T11:59:00.224Z,10.02
2023-01-03T12:01:38.788Z,7.72
2023-01-03T12:04:18.492Z,6.80
2023-01-03T12:10:13.931Z,8.57
2023-01-03T12:13:26.954Z,8.07
2023-01-03T12:16:09.073Z,10.25
2023-01-03T12:18:54.400Z,8.27
2023-01-03T12:21:31.995Z,8.77
2023-01-03T12:24:05.612Z,6.80
2023-01-03T12:26:35.334Z,6.88
2023-01-03T12:29:29.456Z,9.60
2023-01-03T12:32:21.088Z,7.60
2023-01-03T12:35:27.056Z,9.02
2023-01-03T12:37:57.365Z,7.45
2023-01-03T12:40:42.001Z,8.70
2023-01-03T12:43:17.257Z,8.73
2023-01-03T12:45:47.560Z,7.47
2023-01-03T12:48:28.385Z,10.00
2023-01-03T12:50:56.462Z,9.48
2023-01-03T12:53:46.936Z,8.82
2023-01-03T12:56:48.665Z,6.55
2023-01-03T12:59:31.316Z,7.65
2023-01-03T13:02:06.806Z,5.78
2023-01-03T13:04:38.364Z,5.30
2023-01-03T13:07:30.556Z,4.93
2023-01-03T13:10:07.247Z,5.80
2023-01-03T13:12:36.259Z,5.97
2023-01-03T13:15:03.783Z,5.38
2023-01-03T13:17:42.473Z,7.55
2023-01-03T13:20:31.259Z,4.95
2023-01-03T13:23:00.511Z,6.65
2023-01-03T13:25:32.441Z,7.25
2023-01-03T13:28:03.715Z,8.53
2023-01-03T13:30:34.745Z,8.35
2023-01-03T13:33:07.310Z,7.22
2023-01-03T13:35:56.476Z,4.97
2023-01-03T13:38:30.573Z,6.90
2023-01-03T13:41:18.930Z,6.53
2023-01-03T13:43:51.142Z,6.32
2023-01-03T13:46:23.034Z,5.53
2023-01-03T13:49:02.534Z,8.90
2023-01-03T13:51:35.664Z,7.40
2023-01-03T13:54:25.276Z,6.93
2023-01-03T13:56:55.123Z,7.10
2023-01-03T13:59:31.426Z,7.53
2023-01-03T14:02:11.202Z,5.32
2023-01-03T14:05:24.233Z,6.47
2023-01-03T14:08:33.363Z,5.80
2023-01-03T14:11:30.491Z,7.50
2023-01-03T14:14:06.604Z,4.70
2023-01-03T14:16:53.387Z,7.55
2023-01-03T14:19:26.375Z,10.93
2023-01-03T14:22:21.010Z,8.40
2023-01-03T14:24:55.447Z,7.82
2023-01-03T14:27:26.627Z,7.55
2023-01-03T14:29:55.915Z,7.32
2023-01-03T14:32:30.409Z,8.15
2023-01-03T14:35:01.112Z,10.73
2023-01-03T14:37:28.765Z,7.28
2023-01-03T14:39:56.754Z,7.80
2023-01-03T14:42:24.687Z,9.05
2023-01-03T14:45:07.356Z,8.35
2023-01-03T14:47:35.981Z,7.40
2023-01-03T14:50:04.970Z,8.85
2023-01-03T14:52:41.181Z,8.63
2023-01-03T14:55:16.057Z,10.38
2023-01-03T14:57:44.870Z,7.45
2023-01-03T15:00:32.112Z,8.85
2023-01-03T15:03:02.550Z,7.50
2023-01-03T15:05:34.158Z,7.10
2023-01-03T15:08:22.688Z,7.60
2023-01-03T15:11:06.215Z,10.45
2023-01-03T15:13:40.805Z,12.02
2023-01-03T15:16:39.064Z,10.18
2023-01-03T15:19:25.048Z,9.00
2023-01-03T15:22:35.655Z,9.25
2023-01-03T15:25:15.961Z,7.88
2023-01-03T15:27:45.793Z,7.50
2023-01-03T15:30:20.862Z,6.72
2023-01-03T15:32:54.226Z,11.07
2023-01-03T15:35:24.143Z,8.75
2023-01-03T15:37:56.566Z,8.40
2023-01-03T15:40:24.444Z,7.20
2023-01-03T15:43:10.932Z,10.73
2023-01-03T15:45:41.534Z,6.97
2023-01-03T15:48:15.268Z,5.32
2023-01-03T15:50:51.602Z,5.93
2023-01-03T15:53:25.397Z,8.57
2023-01-03T15:55:57.423Z,8.90
2023-01-03T15:58:26.250Z,8.13
2023-01-03T16:00:54.126Z,6.72
2023-01-03T16:03:24.213Z,7.60
2023-01-03T16:05:52.074Z,5.82
2023-01-03T16:08:31.858Z,9.38
2023-01-03T16:11:01.920Z,6.72
2023-01-03T16:13:31.951Z,6.82
2023-01-03T16:16:00.105Z,6.68
2023-01-03T16:18:40.365Z,6.47
2023-01-03T16:21:07.746Z,7.18
2023-01-03T16:23:35.462Z,9.68
2023-01-03T16:26:02.738Z,8.85
2023-01-03T16:28:29.938Z,5.95
2023-01-03T16:31:00.791Z,9.60
2023-01-03T16:33:35.318Z,10.48
2023-01-03T16:36:04.224Z,9.35
2023-01-03T16:38:33.832Z,11.48
2023-01-03T16:41:01.106Z,8.93
2023-01-03T16:43:29.148Z,6.38
2023-01-03T16:45:59.979Z,6.53
2023-01-03T16:48:38.281Z,8.57
2023-01-03T16:51:06.478Z,9.82
2023-01-03T16:53:37.297Z,8.25
2023-01-03T16:56:06.913Z,9.10
2023-01-03T16:58:34.655Z,7.70
2023-01-03T17:01:01.840Z,9.30
2023-01-03T17:03:29.471Z,7.78
2023-01-03T17:05:56.972Z,7.93
2023-01-03T17:08:28.253Z,7.35
2023-01-03T17:10:58.052Z,5.68
2023-01-03T17:13:34.327Z,8.18
2023-01-03T17:16:03.437Z,6.28
2023-01-03T17:18:37.646Z,9.98
2023-01-03T17:21:24.131Z,5.57
2023-01-03T17:23:55.047Z,5.93
2023-01-03T17:26:24.243Z,3.92
2023-01-03T17:28:53.578Z,5.68
2023-01-03T17:31:25.750Z,3.58
2023-01-03T17:33:54.018Z,4.88
2023-01-03T17:36:31.500Z,3.60
2023-01-03T17:39:03.109Z,4.47
2023-01-03T17:41:31.062Z,4.43
2023-01-03T17:43:58.458Z,5.25
2023-01-03T17:46:46.622Z,6.68
2023-01-03T17:49:25.166Z,7.22
2023-01-03T17:51:56.280Z,4.05
2023-01-03T17:54:29.554Z,6.20
2023-01-03T17:56:59.968Z,4.50
2023-01-03T17:59:27.813Z,5.00
2023-01-03T18:01:55.776Z,6.03
2023-01-03T18:04:44.064Z,6.25
2023-01-03T18:07:26.543Z,5.32
2023-01-03T18:09:57.554Z,5.85
2023-01-03T18:12:27.079Z,6.38
2023-01-03T18:14:54.353Z,5.57
2023-01-03T18:17:31.188Z,4.38
2023-01-03T18:19:59.422Z,6.25
2023-01-03T18:22:27.733Z,5.05
2023-01-03T18:24:56.963Z,4.78
2023-01-03T18:27:27.552Z,5.43
2023-01-03T18:29:55.027Z,5.57
2023-01-03T18:32:28.157Z,5.40
2023-01-03T18:34:56.656Z,3.97
2023-01-03T18:37:30.001Z,5.50
2023-01-03T18:39:57.599Z,7.90
2023-01-03T18:42:43.189Z,9.63
2023-01-03T18:45:14.684Z,10.13
2023-01-03T18:47:41.811Z,11.77
2023-01-03T18:50:17.496Z,9.65
2023-01-03T18:52:45.295Z,8.75
2023-01-03T18:55:17.318Z,12.68
2023-01-03T18:57:45.626Z,4.97
2023-01-03T19:00:23.005Z,12.15
2023-01-03T19:02:51.741Z,7.65
2023-01-03T19:05:20.233Z,6.28
2023-01-03T19:07:50.760Z,5.65
2023-01-03T19:10:26.289Z,3.95
2023-01-03T19:12:56.801Z,4.20
2023-01-03T19:15:26.610Z,4.68
2023-01-03T19:17:53.809Z,4.13
2023-01-03T19:20:26.554Z,3.78
2023-01-03T19:22:55.493Z,4.55
2023-01-03T19:25:28.099Z,4.82
2023-01-03T19:27:58.074Z,3.20
2023-01-03T19:30:38.851Z,5.75
2023-01-03T19:33:11.920Z,4.15
2023-01-03T19:35:39.303Z,2.35
2023-01-03T19:38:09.714Z,4.68
2023-01-03T19:40:39.154Z,2.97
2023-01-03T19:43:06.553Z,3.80
2023-01-03T19:45:35.564Z,5.53
2023-01-03T19:48:05.066Z,3.03
2023-01-03T19:50:34.763Z,5.90
2023-01-03T19:53:02.502Z,7.47
2023-01-03T19:55:32.937Z,4.35
2023-01-03T19:58:04.009Z,7.32
2023-01-03T20:00:32.751Z,4.32
2023-01-03T20:03:03.627Z,2.10
2023-01-03T20:05:37.227Z,3.72
2023-01-03T20:08:12.091Z,6.53
2023-01-03T20:10:41.756Z,5.00
2023-01-03T20:13:19.193Z,6.93
2023-01-03T20:15:48.826Z,5.50
2023-01-03T20:18:28.371Z,4.28
2023-01-03T20:20:59.575Z,4.82
2023-01-03T20:23:32.370Z,6.00
2023-01-03T20:26:02.117Z,3.97
2023-01-03T20:28:29.937Z,10.13
2023-01-03T20:31:01.263Z,5.55
2023-01-03T20:33:29.284Z,6.47
2023-01-03T20:36:12.698Z,7.75
2023-01-03T20:38:49.532Z,8.70
2023-01-03T20:41:19.140Z,5.70
2023-01-03T20:43:47.807Z,4.85
2023-01-03T20:46:20.396Z,5.68
2023-01-03T20:48:56.423Z,5.85
2023-01-03T20:51:27.425Z,6.32
2023-01-03T20:53:55.567Z,5.50
2023-01-03T20:56:23.672Z,8.32
2023-01-03T20:58:51.080Z,12.75
2023-01-03T21:01:19.427Z,7.50
2023-01-03T21:03:46.741Z,5.43
2023-01-03T21:06:18.191Z,6.63
2023-01-03T21:08:54.737Z,6.47
2023-01-03T21:11:36.109Z,4.70
2023-01-03T21:14:04.231Z,5.00
2023-01-03T21:16:42.916Z,8.23
2023-01-03T21:19:22.281Z,4.30
2023-01-03T21:21:54.542Z,6.97
2023-01-03T21:24:25.377Z,7.63
2023-01-03T21:26:52.608Z,5.93
2023-01-03T21:29:19.804Z,7.82
2023-01-03T21:31:47.123Z,4.45
2023-01-03T21:34:20.028Z,5.53
2023-01-03T21:39:15.656Z,6.07
2023-01-03T21:42:01.326Z,4.82
2023-01-03T21:44:28.551Z,4.28
2023-01-03T21:46:55.827Z,5.63
2023-01-03T21:49:23.229Z,5.65
2023-01-03T21:51:50.834Z,5.90
2023-01-03T21:54:18.441Z,3.53
2023-01-03T21:56:46.759Z,5.30
2023-01-03T21:59:18.350Z,3.83
2023-01-03T22:02:04.913Z,6.32
2023-01-03T22:04:34.337Z,3.55
2023-01-03T22:07:02.111Z,4.35
2023-01-03T22:09:51.280Z,3.08
2023-01-03T22:12:20.971Z,3.25
2023-01-03T22:14:48.483Z,2.97
2023-01-03T22:17:17.086Z,3.85
2023-01-03T22:19:44.629Z,4.60
2023-01-03T22:22:12.003Z,2.63
2023-01-03T22:24:39.011Z,4.28
2023-01-03T22:27:06.585Z,3.65
2023-01-03T22:29:33.939Z,3.85
2023-01-03T22:32:01.075Z,3.35
2023-01-03T22:34:28.380Z,1.88
2023-01-03T22:36:55.651Z,3.05
2023-01-03T22:39:22.768Z,2.30
2023-01-03T22:41:50.602Z,3.00
2023-01-03T22:44:17.922Z,7.32
2023-01-03T22:46:45.173Z,3.15
2023-01-03T22:49:12.765Z,5.38
2023-01-03T22:51:40.216Z,5.20
2023-01-03T22:54:07.426Z,5.57
2023-01-03T22:56:34.619Z,3.33
2023-01-03T22:59:02.722Z,6.97
2023-01-03T23:01:30.422Z,4.85
2023-01-03T23:04:03.616Z,4.55
2023-01-03T23:06:34.410Z,4.25
2023-01-03T23:09:02.594Z,4.75
2023-01-03T23:11:50.496Z,6.35
2023-01-03T23:14:21.129Z,4.07
2023-01-03T23:16:51.245Z,5.55
2023-01-03T23:19:21.335Z,3.00
2023-01-03T23:21:48.464Z,2.95
2023-01-03T23:24:19.100Z,4.93
2023-01-03T23:26:46.612Z,3.00
2023-01-03T23:29:16.769Z,2.88
2023-01-03T23:31:44.430Z,4.57
2023-01-03T23:34:12.340Z,3.42
2023-01-03T23:36:43.474Z,3.17
2023-01-03T23:39:17.037Z,7.35
2023-01-03T23:41:45.877Z,2.38
2023-01-03T23:44:13.059Z,3.42
2023-01-03T23:46:40.353Z,3.17
2023-01-03T23:49:07.649Z,3.25
2023-01-03T23:51:34.755Z,5.93
2023-01-03T23:54:01.760Z,3.33
2023-01-03T23:56:28.920Z,2.67
2023-01-03T23:58:56.093Z,4.95
